sensor_id;sensor_type;location;lat;lon;timestamp;P1;durP1;ratioP1;P2;durP2;ratioP2
21905;SDS011;11117;48.644;9.006;2023-08-12T00:00:04;15.65;;;8.18;;
21905;SDS011;11117;48.644;9.006;2023-08-12T00:02:31;17.58;;;9.48;;
21905;SDS011;11117;48.644;9.006;2023-08-12T00:04:56;16.67;;;9.38;;
21905;SDS011;11117;48.644;9.006;2023-08-12T00:07:22;15.00;;;9.13;;
21905;SDS011;11117;48.644;9.006;2023-08-12T00:09:47;14.77;;;9.07;;
21905;SDS011;11117;48.644;9.006;2023-08-12T00:12:13;12.02;;;8.65;;
21905;SDS011;11117;48.644;9.006;2023-08-12T00:14:38;13.02;;;8.57;;
21905;SDS011;11117;48.644;9.006;2023-08-12T00:17:04;10.60;;;8.20;;
21905;SDS011;11117;48.644;9.006;2023-08-12T00:19:29;14.82;;;7.63;;
21905;SDS011;11117;48.644;9.006;2023-08-12T00:21:55;15.73;;;7.68;;
21905;SDS011;11117;48.644;9.006;2023-08-12T00:24:20;11.95;;;8.20;;
21905;SDS011;11117;48.644;9.006;2023-08-12T00:26:46;9.82;;;7.78;;
21905;SDS011;11117;48.644;9.006;2023-08-12T00:29:11;15.77;;;7.38;;
21905;SDS011;11117;48.644;9.006;2023-08-12T00:31:37;13.35;;;7.07;;
21905;SDS011;11117;48.644;9.006;2023-08-12T00:34:02;12.32;;;8.00;;
21905;SDS011;11117;48.644;9.006;2023-08-12T00:36:28;13.35;;;8.02;;
21905;SDS011;11117;48.644;9.006;2023-08-12T00:38:53;12.20;;;8.23;;
21905;SDS011;11117;48.644;9.006;2023-08-12T00:41:19;13.27;;;8.02;;
21905;SDS011;11117;48.644;9.006;2023-08-12T00:43:44;13.38;;;8.13;;
21905;SDS011;11117;48.644;9.006;2023-08-12T00:46:10;10.20;;;8.02;;
21905;SDS011;11117;48.644;9.006;2023-08-12T00:48:37;16.25;;;8.73;;
21905;SDS011;11117;48.644;9.006;2023-08-12T00:51:03;13.85;;;8.60;;
21905;SDS011;11117;48.644;9.006;2023-08-12T00:53:29;13.23;;;8.50;;
21905;SDS011;11117;48.644;9.006;2023-08-12T00:55:55;14.48;;;8.15;;
21905;SDS011;11117;48.644;9.006;2023-08-12T00:58:20;9.82;;;8.20;;
21905;SDS011;11117;48.644;9.006;2023-08-12T01:00:46;11.52;;;7.60;;
21905;SDS011;11117;48.644;9.006;2023-08-12T01:03:12;11.55;;;7.80;;
21905;SDS011;11117;48.644;9.006;2023-08-12T01:05:37;18.13;;;8.07;;
21905;SDS011;11117;48.644;9.006;2023-08-12T01:08:03;12.85;;;7.75;;
21905;SDS011;11117;48.644;9.006;2023-08-12T01:10:32;15.30;;;7.85;;
21905;SDS011;11117;48.644;9.006;2023-08-12T01:13:06;13.65;;;7.63;;
21905;SDS011;11117;48.644;9.006;2023-08-12T01:15:33;10.02;;;7.65;;
21905;SDS011;11117;48.644;9.006;2023-08-12T01:17:59;13.63;;;7.80;;
21905;SDS011;11117;48.644;9.006;2023-08-12T01:20:26;10.85;;;7.35;;
21905;SDS011;11117;48.644;9.006;2023-08-12T01:23:12;8.93;;;6.93;;
21905;SDS011;11117;48.644;9.006;2023-08-12T01:25:39;9.98;;;7.75;;
21905;SDS011;11117;48.644;9.006;2023-08-12T01:28:05;11.07;;;7.07;;
21905;SDS011;11117;48.644;9.006;2023-08-12T01:30:30;7.75;;;6.75;;
21905;SDS011;11117;48.644;9.006;2023-08-12T01:33:00;7.70;;;6.63;;
21905;SDS011;11117;48.644;9.006;2023-08-12T01:35:41;10.15;;;6.60;;
21905;SDS011;11117;48.644;9.006;2023-08-12T01:38:12;10.23;;;6.53;;
21905;SDS011;11117;48.644;9.006;2023-08-12T01:40:38;10.63;;;7.00;;
21905;SDS011;11117;48.644;9.006;2023-08-12T01:43:04;12.18;;;6.65;;
21905;SDS011;11117;48.644;9.006;2023-08-12T01:45:33;9.80;;;6.53;;
21905;SDS011;11117;48.644;9.006;2023-08-12T01:47:58;9.90;;;6.40;;
21905;SDS011;11117;48.644;9.006;2023-08-12T01:50:24;9.93;;;6.53;;
21905;SDS011;11117;48.644;9.006;2023-08-12T01:52:49;9.40;;;6.45;;
21905;SDS011;11117;48.644;9.006;2023-08-12T01:55:15;9.50;;;6.50;;
21905;SDS011;11117;48.644;9.006;2023-08-12T01:57:41;14.23;;;7.00;;
21905;SDS011;11117;48.644;9.006;2023-08-12T02:00:06;10.73;;;6.25;;
21905;SDS011;11117;48.644;9.006;2023-08-12T02:02:32;10.32;;;6.38;;
21905;SDS011;11117;48.644;9.006;2023-08-12T02:04:58;8.68;;;6.78;;
21905;SDS011;11117;48.644;9.006;2023-08-12T02:07:23;9.77;;;6.70;;
21905;SDS011;11117;48.644;9.006;2023-08-12T02:09:48;8.07;;;6.45;;
21905;SDS011;11117;48.644;9.006;2023-08-12T02:12:14;8.60;;;6.65;;
21905;SDS011;11117;48.644;9.006;2023-08-12T02:14:40;9.32;;;6.68;;
21905;SDS011;11117;48.644;9.006;2023-08-12T02:17:05;8.73;;;6.25;;
21905;SDS011;11117;48.644;9.006;2023-08-12T02:19:31;8.15;;;6.45;;
21905;SDS011;11117;48.644;9.006;2023-08-12T02:21:58;9.07;;;6.20;;
21905;SDS011;11117;48.644;9.006;2023-08-12T02:24:23;8.32;;;6.03;;
21905;SDS011;11117;48.644;9.006;2023-08-12T02:26:49;14.25;;;6.88;;
21905;SDS011;11117;48.644;9.006;2023-08-12T02:29:15;9.35;;;6.65;;
21905;SDS011;11117;48.644;9.006;2023-08-12T02:31:40;7.97;;;6.47;;
21905;SDS011;11117;48.644;9.006;2023-08-12T02:34:06;8.60;;;6.60;;
21905;SDS011;11117;48.644;9.006;2023-08-12T02:36:31;10.20;;;6.22;;
21905;SDS011;11117;48.644;9.006;2023-08-12T02:38:57;7.85;;;6.28;;
21905;SDS011;11117;48.644;9.006;2023-08-12T02:41:22;10.00;;;6.75;;
21905;SDS011;11117;48.644;9.006;2023-08-12T02:43:48;9.23;;;6.35;;
21905;SDS011;11117;48.644;9.006;2023-08-12T02:46:13;8.13;;;6.28;;
21905;SDS011;11117;48.644;9.006;2023-08-12T02:48:39;9.27;;;6.47;;
21905;SDS011;11117;48.644;9.006;2023-08-12T02:51:08;10.20;;;6.78;;
21905;SDS011;11117;48.644;9.006;2023-08-12T02:53:33;8.88;;;6.97;;
21905;SDS011;11117;48.644;9.006;2023-08-12T02:55:59;9.50;;;6.90;;
21905;SDS011;11117;48.644;9.006;2023-08-12T02:58:24;9.43;;;6.70;;
21905;SDS011;11117;48.644;9.006;2023-08-12T03:00:50;6.88;;;6.15;;
21905;SDS011;11117;48.644;9.006;2023-08-12T03:03:16;8.50;;;6.15;;
21905;SDS011;11117;48.644;9.006;2023-08-12T03:05:41;15.52;;;7.35;;
21905;SDS011;11117;48.644;9.006;2023-08-12T03:08:11;10.88;;;7.15;;
21905;SDS011;11117;48.644;9.006;2023-08-12T03:10:38;9.75;;;7.10;;
21905;SDS011;11117;48.644;9.006;2023-08-12T03:13:04;17.05;;;6.47;;
21905;SDS011;11117;48.644;9.006;2023-08-12T03:15:29;8.05;;;7.03;;
21905;SDS011;11117;48.644;9.006;2023-08-12T03:17:55;7.13;;;6.43;;
21905;SDS011;11117;48.644;9.006;2023-08-12T03:20:21;8.13;;;6.22;;
21905;SDS011;11117;48.644;9.006;2023-08-12T03:22:47;8.05;;;6.13;;
21905;SDS011;11117;48.644;9.006;2023-08-12T03:25:13;7.93;;;6.40;;
21905;SDS011;11117;48.644;9.006;2023-08-12T03:27:38;10.15;;;6.65;;
21905;SDS011;11117;48.644;9.006;2023-08-12T03:30:04;10.60;;;5.72;;
21905;SDS011;11117;48.644;9.006;2023-08-12T03:32:30;11.63;;;6.30;;
21905;SDS011;11117;48.644;9.006;2023-08-12T03:34:55;8.93;;;6.10;;
21905;SDS011;11117;48.644;9.006;2023-08-12T03:37:21;7.10;;;5.65;;
21905;SDS011;11117;48.644;9.006;2023-08-12T03:39:47;9.55;;;6.28;;
21905;SDS011;11117;48.644;9.006;2023-08-12T03:42:12;7.20;;;6.13;;
21905;SDS011;11117;48.644;9.006;2023-08-12T03:44:38;8.25;;;6.30;;
21905;SDS011;11117;48.644;9.006;2023-08-12T03:47:03;7.38;;;6.57;;
21905;SDS011;11117;48.644;9.006;2023-08-12T03:49:29;11.52;;;6.93;;
21905;SDS011;11117;48.644;9.006;2023-08-12T03:51:54;9.93;;;6.35;;
21905;SDS011;11117;48.644;9.006;2023-08-12T03:54:20;8.82;;;6.30;;
21905;SDS011;11117;48.644;9.006;2023-08-12T03:56:45;8.52;;;6.65;;
21905;SDS011;11117;48.644;9.006;2023-08-12T03:59:11;10.80;;;6.57;;
21905;SDS011;11117;48.644;9.006;2023-08-12T04:01:36;10.75;;;6.70;;
21905;SDS011;11117;48.644;9.006;2023-08-12T04:04:02;11.43;;;5.97;;
21905;SDS011;11117;48.644;9.006;2023-08-12T04:06:28;7.05;;;6.35;;
21905;SDS011;11117;48.644;9.006;2023-08-12T04:08:53;9.00;;;6.38;;
21905;SDS011;11117;48.644;9.006;2023-08-12T04:11:19;7.53;;;6.15;;
21905;SDS011;11117;48.644;9.006;2023-08-12T04:13:44;7.55;;;5.90;;
21905;SDS011;11117;48.644;9.006;2023-08-12T04:16:10;8.57;;;5.75;;
21905;SDS011;11117;48.644;9.006;2023-08-12T04:18:35;6.82;;;5.85;;
21905;SDS011;11117;48.644;9.006;2023-08-12T04:21:02;12.38;;;5.90;;
21905;SDS011;11117;48.644;9.006;2023-08-12T04:23:27;10.60;;;6.20;;
21905;SDS011;11117;48.644;9.006;2023-08-12T04:25:53;9.63;;;6.20;;
21905;SDS011;11117;48.644;9.006;2023-08-12T04:28:18;9.13;;;6.28;;
21905;SDS011;11117;48.644;9.006;2023-08-12T04:30:44;11.13;;;6.18;;
21905;SDS011;11117;48.644;9.006;2023-08-12T04:33:14;9.68;;;6.22;;
21905;SDS011;11117;48.644;9.006;2023-08-12T04:35:40;9.20;;;5.82;;
21905;SDS011;11117;48.644;9.006;2023-08-12T04:38:06;7.30;;;6.25;;
21905;SDS011;11117;48.644;9.006;2023-08-12T04:40:32;6.85;;;6.15;;
21905;SDS011;11117;48.644;9.006;2023-08-12T04:42:58;9.60;;;5.85;;
21905;SDS011;11117;48.644;9.006;2023-08-12T04:45:24;8.20;;;5.70;;
21905;SDS011;11117;48.644;9.006;2023-08-12T04:47:50;9.27;;;6.10;;
21905;SDS011;11117;48.644;9.006;2023-08-12T04:50:15;7.30;;;5.72;;
21905;SDS011;11117;48.644;9.006;2023-08-12T04:52:41;8.68;;;5.70;;
21905;SDS011;11117;48.644;9.006;2023-08-12T04:55:07;11.15;;;5.97;;
21905;SDS011;11117;48.644;9.006;2023-08-12T04:57:33;8.13;;;5.85;;
21905;SDS011;11117;48.644;9.006;2023-08-12T04:59:58;9.07;;;6.55;;
21905;SDS011;11117;48.644;9.006;2023-08-12T05:02:24;9.88;;;6.20;;
21905;SDS011;11117;48.644;9.006;2023-08-12T05:04:50;8.40;;;6.28;;
21905;SDS011;11117;48.644;9.006;2023-08-12T05:07:16;10.05;;;6.13;;
21905;SDS011;11117;48.644;9.006;2023-08-12T05:09:42;11.73;;;5.80;;
21905;SDS011;11117;48.644;9.006;2023-08-12T05:12:08;9.30;;;6.32;;
21905;SDS011;11117;48.644;9.006;2023-08-12T05:14:33;9.38;;;6.63;;
21905;SDS011;11117;48.644;9.006;2023-08-12T05:16:59;11.15;;;6.72;;
21905;SDS011;11117;48.644;9.006;2023-08-12T05:19:24;8.60;;;6.68;;
21905;SDS011;11117;48.644;9.006;2023-08-12T05:21:50;7.05;;;6.35;;
21905;SDS011;11117;48.644;9.006;2023-08-12T05:24:15;8.57;;;6.63;;
21905;SDS011;11117;48.644;9.006;2023-08-12T05:26:41;7.15;;;6.45;;
21905;SDS011;11117;48.644;9.006;2023-08-12T05:29:06;7.78;;;6.97;;
21905;SDS011;11117;48.644;9.006;2023-08-12T05:31:32;10.70;;;7.25;;
21905;SDS011;11117;48.644;9.006;2023-08-12T05:33:57;11.15;;;6.57;;
21905;SDS011;11117;48.644;9.006;2023-08-12T05:36:23;10.60;;;6.82;;
21905;SDS011;11117;48.644;9.006;2023-08-12T05:38:48;8.82;;;6.95;;
21905;SDS011;11117;48.644;9.006;2023-08-12T05:41:14;8.43;;;6.30;;
21905;SDS011;11117;48.644;9.006;2023-08-12T05:43:39;10.18;;;6.20;;
21905;SDS011;11117;48.644;9.006;2023-08-12T05:46:06;10.25;;;6.28;;
21905;SDS011;11117;48.644;9.006;2023-08-12T05:48:32;7.47;;;6.25;;
21905;SDS011;11117;48.644;9.006;2023-08-12T05:50:57;11.30;;;6.60;;
21905;SDS011;11117;48.644;9.006;2023-08-12T05:53:23;8.93;;;6.40;;
21905;SDS011;11117;48.644;9.006;2023-08-12T05:55:48;7.82;;;6.03;;
21905;SDS011;11117;48.644;9.006;2023-08-12T05:58:14;8.23;;;6.20;;
21905;SDS011;11117;48.644;9.006;2023-08-12T06:00:39;12.82;;;6.32;;
21905;SDS011;11117;48.644;9.006;2023-08-12T06:03:05;8.20;;;5.90;;
21905;SDS011;11117;48.644;9.006;2023-08-12T06:05:30;9.10;;;6.10;;
21905;SDS011;11117;48.644;9.006;2023-08-12T06:07:56;9.45;;;6.18;;
21905;SDS011;11117;48.644;9.006;2023-08-12T06:10:21;15.23;;;6.18;;
21905;SDS011;11117;48.644;9.006;2023-08-12T06:12:47;7.15;;;5.80;;
21905;SDS011;11117;48.644;9.006;2023-08-12T06:15:12;10.70;;;5.93;;
21905;SDS011;11117;48.644;9.006;2023-08-12T06:17:38;8.95;;;5.80;;
21905;SDS011;11117;48.644;9.006;2023-08-12T06:20:04;7.03;;;5.85;;
21905;SDS011;11117;48.644;9.006;2023-08-12T06:22:30;7.60;;;5.43;;
21905;SDS011;11117;48.644;9.006;2023-08-12T06:24:55;7.60;;;5.47;;
21905;SDS011;11117;48.644;9.006;2023-08-12T06:27:21;7.97;;;6.00;;
21905;SDS011;11117;48.644;9.006;2023-08-12T06:29:46;7.32;;;5.88;;
21905;SDS011;11117;48.644;9.006;2023-08-12T06:32:12;9.57;;;5.75;;
21905;SDS011;11117;48.644;9.006;2023-08-12T06:34:37;11.13;;;6.25;;
21905;SDS011;11117;48.644;9.006;2023-08-12T06:37:03;7.57;;;5.53;;
21905;SDS011;11117;48.644;9.006;2023-08-12T06:39:29;9.10;;;5.05;;
21905;SDS011;11117;48.644;9.006;2023-08-12T06:41:54;7.95;;;5.13;;
21905;SDS011;11117;48.644;9.006;2023-08-12T06:44:20;5.80;;;4.82;;
21905;SDS011;11117;48.644;9.006;2023-08-12T06:46:45;7.40;;;5.18;;
21905;SDS011;11117;48.644;9.006;2023-08-12T06:49:11;7.88;;;5.10;;
21905;SDS011;11117;48.644;9.006;2023-08-12T06:51:37;7.10;;;4.97;;
21905;SDS011;11117;48.644;9.006;2023-08-12T06:54:02;10.23;;;5.05;;
21905;SDS011;11117;48.644;9.006;2023-08-12T06:56:28;7.25;;;5.13;;
21905;SDS011;11117;48.644;9.006;2023-08-12T06:58:53;7.20;;;4.57;;
21905;SDS011;11117;48.644;9.006;2023-08-12T07:01:19;5.80;;;4.60;;
21905;SDS011;11117;48.644;9.006;2023-08-12T07:03:44;7.35;;;4.80;;
21905;SDS011;11117;48.644;9.006;2023-08-12T07:06:10;7.43;;;4.32;;
21905;SDS011;11117;48.644;9.006;2023-08-12T07:08:36;8.10;;;5.00;;
21905;SDS011;11117;48.644;9.006;2023-08-12T07:11:02;5.05;;;3.92;;
21905;SDS011;11117;48.644;9.006;2023-08-12T07:13:27;8.27;;;4.15;;
21905;SDS011;11117;48.644;9.006;2023-08-12T07:15:53;8.48;;;4.13;;
21905;SDS011;11117;48.644;9.006;2023-08-12T07:18:18;8.65;;;4.20;;
21905;SDS011;11117;48.644;9.006;2023-08-12T07:20:44;6.15;;;3.75;;
21905;SDS011;11117;48.644;9.006;2023-08-12T07:23:09;4.30;;;3.85;;
21905;SDS011;11117;48.644;9.006;2023-08-12T07:25:35;4.78;;;4.10;;
21905;SDS011;11117;48.644;9.006;2023-08-12T07:28:00;8.30;;;3.67;;
21905;SDS011;11117;48.644;9.006;2023-08-12T07:30:26;7.68;;;3.83;;
21905;SDS011;11117;48.644;9.006;2023-08-12T07:32:51;4.75;;;3.55;;
21905;SDS011;11117;48.644;9.006;2023-08-12T07:35:17;6.32;;;3.85;;
21905;SDS011;11117;48.644;9.006;2023-08-12T07:37:43;5.40;;;3.78;;
21905;SDS011;11117;48.644;9.006;2023-08-12T07:40:08;5.82;;;3.70;;
21905;SDS011;11117;48.644;9.006;2023-08-12T07:42:34;5.05;;;3.83;;
21905;SDS011;11117;48.644;9.006;2023-08-12T07:45:00;4.90;;;3.55;;
21905;SDS011;11117;48.644;9.006;2023-08-12T07:47:25;4.93;;;3.50;;
21905;SDS011;11117;48.644;9.006;2023-08-12T07:49:51;4.05;;;3.30;;
21905;SDS011;11117;48.644;9.006;2023-08-12T07:52:16;4.35;;;3.70;;
21905;SDS011;11117;48.644;9.006;2023-08-12T07:54:42;5.70;;;3.58;;
21905;SDS011;11117;48.644;9.006;2023-08-12T07:57:07;5.18;;;3.67;;
21905;SDS011;11117;48.644;9.006;2023-08-12T07:59:33;3.85;;;3.42;;
21905;SDS011;11117;48.644;9.006;2023-08-12T08:01:58;5.78;;;3.05;;
21905;SDS011;11117;48.644;9.006;2023-08-12T08:04:24;7.88;;;3.10;;
21905;SDS011;11117;48.644;9.006;2023-08-12T08:06:49;7.40;;;3.15;;
21905;SDS011;11117;48.644;9.006;2023-08-12T08:09:15;7.07;;;3.30;;
21905;SDS011;11117;48.644;9.006;2023-08-12T08:11:40;6.30;;;3.10;;
21905;SDS011;11117;48.644;9.006;2023-08-12T08:14:06;6.90;;;3.33;;
21905;SDS011;11117;48.644;9.006;2023-08-12T08:16:31;7.93;;;3.20;;
21905;SDS011;11117;48.644;9.006;2023-08-12T08:18:57;3.83;;;3.10;;
21905;SDS011;11117;48.644;9.006;2023-08-12T08:21:23;10.35;;;3.13;;
21905;SDS011;11117;48.644;9.006;2023-08-12T08:23:49;4.55;;;3.13;;
21905;SDS011;11117;48.644;9.006;2023-08-12T08:26:14;4.30;;;3.10;;
21905;SDS011;11117;48.644;9.006;2023-08-12T08:28:40;4.60;;;3.20;;
21905;SDS011;11117;48.644;9.006;2023-08-12T08:31:07;7.07;;;3.22;;
21905;SDS011;11117;48.644;9.006;2023-08-12T08:33:32;7.15;;;3.25;;
21905;SDS011;11117;48.644;9.006;2023-08-12T08:35:58;6.97;;;2.80;;
21905;SDS011;11117;48.644;9.006;2023-08-12T08:38:23;4.95;;;2.92;;
21905;SDS011;11117;48.644;9.006;2023-08-12T08:40:49;9.88;;;3.10;;
21905;SDS011;11117;48.644;9.006;2023-08-12T08:43:15;4.78;;;3.33;;
21905;SDS011;11117;48.644;9.006;2023-08-12T08:45:46;4.45;;;3.25;;
21905;SDS011;11117;48.644;9.006;2023-08-12T08:48:12;4.38;;;3.00;;
21905;SDS011;11117;48.644;9.006;2023-08-12T08:50:38;6.00;;;3.15;;
21905;SDS011;11117;48.644;9.006;2023-08-12T08:53:06;5.20;;;3.30;;
21905;SDS011;11117;48.644;9.006;2023-08-12T08:55:31;5.65;;;3.10;;
21905;SDS011;11117;48.644;9.006;2023-08-12T08:57:57;6.40;;;3.17;;
21905;SDS011;11117;48.644;9.006;2023-08-12T09:00:23;6.70;;;3.38;;
21905;SDS011;11117;48.644;9.006;2023-08-12T09:02:50;4.65;;;3.20;;
21905;SDS011;11117;48.644;9.006;2023-08-12T09:05:16;5.35;;;3.38;;
21905;SDS011;11117;48.644;9.006;2023-08-12T09:07:42;6.50;;;3.20;;
21905;SDS011;11117;48.644;9.006;2023-08-12T09:10:09;9.40;;;3.15;;
21905;SDS011;11117;48.644;9.006;2023-08-12T09:12:35;6.05;;;2.70;;
21905;SDS011;11117;48.644;9.006;2023-08-12T09:15:01;3.30;;;2.30;;
21905;SDS011;11117;48.644;9.006;2023-08-12T09:17:28;3.55;;;2.70;;
21905;SDS011;11117;48.644;9.006;2023-08-12T09:19:53;7.75;;;3.00;;
21905;SDS011;11117;48.644;9.006;2023-08-12T09:22:19;5.63;;;3.15;;
21905;SDS011;11117;48.644;9.006;2023-08-12T09:24:45;3.83;;;2.85;;
21905;SDS011;11117;48.644;9.006;2023-08-12T09:27:11;5.70;;;3.00;;
21905;SDS011;11117;48.644;9.006;2023-08-12T09:29:36;4.15;;;2.75;;
21905;SDS011;11117;48.644;9.006;2023-08-12T09:32:11;5.85;;;3.20;;
21905;SDS011;11117;48.644;9.006;2023-08-12T09:34:45;6.30;;;3.05;;
21905;SDS011;11117;48.644;9.006;2023-08-12T09:37:18;3.40;;;3.10;;
21905;SDS011;11117;48.644;9.006;2023-08-12T09:39:46;7.32;;;3.30;;
21905;SDS011;11117;48.644;9.006;2023-08-12T09:42:12;4.18;;;3.50;;
21905;SDS011;11117;48.644;9.006;2023-08-12T09:44:38;9.38;;;3.38;;
21905;SDS011;11117;48.644;9.006;2023-08-12T09:47:08;6.18;;;3.03;;
21905;SDS011;11117;48.644;9.006;2023-08-12T09:49:33;3.75;;;2.90;;
21905;SDS011;11117;48.644;9.006;2023-08-12T09:52:00;3.83;;;3.00;;
21905;SDS011;11117;48.644;9.006;2023-08-12T09:54:26;5.65;;;2.88;;
21905;SDS011;11117;48.644;9.006;2023-08-12T09:56:54;6.65;;;3.20;;
21905;SDS011;11117;48.644;9.006;2023-08-12T09:59:22;9.73;;;3.70;;
21905;SDS011;11117;48.644;9.006;2023-08-12T10:01:49;7.55;;;3.30;;
21905;SDS011;11117;48.644;9.006;2023-08-12T10:04:15;6.72;;;3.00;;
21905;SDS011;11117;48.644;9.006;2023-08-12T10:06:42;5.15;;;3.05;;
21905;SDS011;11117;48.644;9.006;2023-08-12T10:09:09;5.28;;;2.88;;
21905;SDS011;11117;48.644;9.006;2023-08-12T10:11:35;5.55;;;2.85;;
21905;SDS011;11117;48.644;9.006;2023-08-12T10:14:01;5.55;;;2.97;;
21905;SDS011;11117;48.644;9.006;2023-08-12T10:16:28;6.40;;;2.70;;
21905;SDS011;11117;48.644;9.006;2023-08-12T10:18:55;7.70;;;2.85;;
21905;SDS011;11117;48.644;9.006;2023-08-12T10:21:22;10.20;;;2.80;;
21905;SDS011;11117;48.644;9.006;2023-08-12T10:23:48;6.70;;;3.38;;
21905;SDS011;11117;48.644;9.006;2023-08-12T10:26:15;9.88;;;3.03;;
21905;SDS011;11117;48.644;9.006;2023-08-12T10:28:42;5.63;;;3.00;;
21905;SDS011;11117;48.644;9.006;2023-08-12T10:31:10;7.47;;;3.08;;
21905;SDS011;11117;48.644;9.006;2023-08-12T10:33:37;4.43;;;3.50;;
21905;SDS011;11117;48.644;9.006;2023-08-12T10:36:04;3.55;;;3.20;;
21905;SDS011;11117;48.644;9.006;2023-08-12T10:38:31;8.48;;;3.28;;
21905;SDS011;11117;48.644;9.006;2023-08-12T10:41:16;6.60;;;3.22;;
21905;SDS011;11117;48.644;9.006;2023-08-12T10:46:32;4.90;;;2.80;;
21905;SDS011;11117;48.644;9.006;2023-08-12T10:48:59;3.70;;;2.83;;
21905;SDS011;11117;48.644;9.006;2023-08-12T10:54:16;5.45;;;2.78;;
21905;SDS011;11117;48.644;9.006;2023-08-12T11:04:55;5.15;;;2.60;;
21905;SDS011;11117;48.644;9.006;2023-08-12T11:07:38;5.75;;;3.30;;
21905;SDS011;11117;48.644;9.006;2023-08-12T11:10:10;5.25;;;2.90;;
21905;SDS011;11117;48.644;9.006;2023-08-12T11:15:18;5.75;;;2.90;;
21905;SDS011;11117;48.644;9.006;2023-08-12T11:17:53;8.32;;;2.92;;
21905;SDS011;11117;48.644;9.006;2023-08-12T11:20:19;5.50;;;2.97;;
21905;SDS011;11117;48.644;9.006;2023-08-12T11:22:45;8.40;;;2.97;;
21905;SDS011;11117;48.644;9.006;2023-08-12T11:25:12;6.60;;;3.47;;
21905;SDS011;11117;48.644;9.006;2023-08-12T11:27:40;3.45;;;2.72;;
21905;SDS011;11117;48.644;9.006;2023-08-12T11:30:10;5.30;;;3.20;;
21905;SDS011;11117;48.644;9.006;2023-08-12T11:32:38;7.22;;;2.83;;
21905;SDS011;11117;48.644;9.006;2023-08-12T11:35:05;8.80;;;4.03;;
21905;SDS011;11117;48.644;9.006;2023-08-12T11:37:32;6.88;;;2.55;;
21905;SDS011;11117;48.644;9.006;2023-08-12T11:40:00;7.55;;;2.28;;
21905;SDS011;11117;48.644;9.006;2023-08-12T11:42:27;5.03;;;2.30;;
21905;SDS011;11117;48.644;9.006;2023-08-12T11:44:52;6.32;;;2.60;;
21905;SDS011;11117;48.644;9.006;2023-08-12T11:47:18;4.53;;;2.38;;
21905;SDS011;11117;48.644;9.006;2023-08-12T11:49:43;3.72;;;2.55;;
21905;SDS011;11117;48.644;9.006;2023-08-12T11:52:09;5.88;;;2.60;;
21905;SDS011;11117;48.644;9.006;2023-08-12T11:54:36;7.05;;;2.47;;
21905;SDS011;11117;48.644;9.006;2023-08-12T11:57:02;5.53;;;2.40;;
21905;SDS011;11117;48.644;9.006;2023-08-12T11:59:28;3.97;;;2.70;;
21905;SDS011;11117;48.644;9.006;2023-08-12T12:01:54;8.27;;;2.90;;
21905;SDS011;11117;48.644;9.006;2023-08-12T12:04:20;6.53;;;2.67;;
21905;SDS011;11117;48.644;9.006;2023-08-12T12:06:46;8.00;;;2.90;;
21905;SDS011;11117;48.644;9.006;2023-08-12T12:09:12;3.90;;;2.55;;
21905;SDS011;11117;48.644;9.006;2023-08-12T12:11:38;5.35;;;2.40;;
21905;SDS011;11117;48.644;9.006;2023-08-12T12:14:06;11.57;;;2.53;;
21905;SDS011;11117;48.644;9.006;2023-08-12T12:16:37;10.05;;;2.88;;
21905;SDS011;11117;48.644;9.006;2023-08-12T12:19:19;4.78;;;2.10;;
21905;SDS011;11117;48.644;9.006;2023-08-12T12:21:48;9.25;;;2.40;;
21905;SDS011;11117;48.644;9.006;2023-08-12T12:24:15;11.85;;;3.10;;
21905;SDS011;11117;48.644;9.006;2023-08-12T12:26:41;16.90;;;3.83;;
21905;SDS011;11117;48.644;9.006;2023-08-12T12:29:07;10.18;;;3.42;;
21905;SDS011;11117;48.644;9.006;2023-08-12T12:31:33;7.05;;;3.20;;
21905;SDS011;11117;48.644;9.006;2023-08-12T12:34:00;8.15;;;3.13;;
21905;SDS011;11117;48.644;9.006;2023-08-12T12:36:29;5.90;;;3.40;;
21905;SDS011;11117;48.644;9.006;2023-08-12T12:38:55;10.75;;;3.38;;
21905;SDS011;11117;48.644;9.006;2023-08-12T12:41:21;10.70;;;3.50;;
21905;SDS011;11117;48.644;9.006;2023-08-12T12:43:46;6.85;;;3.35;;
21905;SDS011;11117;48.644;9.006;2023-08-12T12:46:12;10.68;;;3.97;;
21905;SDS011;11117;48.644;9.006;2023-08-12T12:48:38;7.80;;;4.68;;
21905;SDS011;11117;48.644;9.006;2023-08-12T12:51:05;6.88;;;3.28;;
21905;SDS011;11117;48.644;9.006;2023-08-12T12:53:30;7.95;;;3.35;;
21905;SDS011;11117;48.644;9.006;2023-08-12T12:55:56;5.78;;;3.40;;
21905;SDS011;11117;48.644;9.006;2023-08-12T12:58:21;11.30;;;3.60;;
21905;SDS011;11117;48.644;9.006;2023-08-12T13:00:47;8.07;;;3.40;;
21905;SDS011;11117;48.644;9.006;2023-08-12T13:03:12;8.55;;;3.58;;
21905;SDS011;11117;48.644;9.006;2023-08-12T13:05:38;7.45;;;3.45;;
21905;SDS011;11117;48.644;9.006;2023-08-12T13:08:03;7.63;;;3.35;;
21905;SDS011;11117;48.644;9.006;2023-08-12T13:10:29;7.88;;;3.90;;
21905;SDS011;11117;48.644;9.006;2023-08-12T13:12:55;10.73;;;3.55;;
21905;SDS011;11117;48.644;9.006;2023-08-12T13:15:20;8.65;;;3.67;;
21905;SDS011;11117;48.644;9.006;2023-08-12T13:17:46;7.28;;;3.80;;
21905;SDS011;11117;48.644;9.006;2023-08-12T13:20:11;8.75;;;3.90;;
21905;SDS011;11117;48.644;9.006;2023-08-12T13:22:37;9.65;;;3.95;;
21905;SDS011;11117;48.644;9.006;2023-08-12T13:25:03;5.32;;;3.50;;
21905;SDS011;11117;48.644;9.006;2023-08-12T13:27:28;5.93;;;3.13;;
21905;SDS011;11117;48.644;9.006;2023-08-12T13:29:54;5.97;;;3.47;;
21905;SDS011;11117;48.644;9.006;2023-08-12T13:32:20;7.55;;;3.22;;
21905;SDS011;11117;48.644;9.006;2023-08-12T13:34:45;6.32;;;2.75;;
21905;SDS011;11117;48.644;9.006;2023-08-12T13:37:11;3.92;;;2.50;;
21905;SDS011;11117;48.644;9.006;2023-08-12T13:39:36;6.53;;;2.30;;
21905;SDS011;11117;48.644;9.006;2023-08-12T13:42:02;4.30;;;2.28;;
21905;SDS011;11117;48.644;9.006;2023-08-12T13:44:27;8.68;;;1.98;;
21905;SDS011;11117;48.644;9.006;2023-08-12T13:46:53;3.13;;;1.80;;
21905;SDS011;11117;48.644;9.006;2023-08-12T13:49:19;3.35;;;1.58;;
21905;SDS011;11117;48.644;9.006;2023-08-12T13:51:44;8.82;;;2.17;;
21905;SDS011;11117;48.644;9.006;2023-08-12T13:54:10;4.30;;;1.58;;
21905;SDS011;11117;48.644;9.006;2023-08-12T13:56:35;6.93;;;1.70;;
21905;SDS011;11117;48.644;9.006;2023-08-12T13:59:01;5.65;;;1.83;;
21905;SDS011;11117;48.644;9.006;2023-08-12T14:01:26;3.40;;;1.50;;
21905;SDS011;11117;48.644;9.006;2023-08-12T14:03:52;3.55;;;1.90;;
21905;SDS011;11117;48.644;9.006;2023-08-12T14:06:17;5.20;;;1.77;;
21905;SDS011;11117;48.644;9.006;2023-08-12T14:08:43;2.47;;;1.73;;
21905;SDS011;11117;48.644;9.006;2023-08-12T14:11:09;5.20;;;1.63;;
21905;SDS011;11117;48.644;9.006;2023-08-12T14:13:35;1.70;;;1.60;;
21905;SDS011;11117;48.644;9.006;2023-08-12T14:16:00;2.95;;;1.80;;
21905;SDS011;11117;48.644;9.006;2023-08-12T14:18:26;2.28;;;1.70;;
21905;SDS011;11117;48.644;9.006;2023-08-12T14:20:51;2.42;;;1.85;;
21905;SDS011;11117;48.644;9.006;2023-08-12T14:23:17;3.05;;;1.70;;
21905;SDS011;11117;48.644;9.006;2023-08-12T14:25:42;2.83;;;1.70;;
21905;SDS011;11117;48.644;9.006;2023-08-12T14:28:08;3.60;;;1.92;;
21905;SDS011;11117;48.644;9.006;2023-08-12T14:30:33;4.05;;;1.42;;
21905;SDS011;11117;48.644;9.006;2023-08-12T14:32:59;3.33;;;1.52;;
21905;SDS011;11117;48.644;9.006;2023-08-12T14:35:24;3.25;;;1.67;;
21905;SDS011;11117;48.644;9.006;2023-08-12T14:37:50;1.88;;;1.67;;
21905;SDS011;11117;48.644;9.006;2023-08-12T14:40:16;2.55;;;1.63;;
21905;SDS011;11117;48.644;9.006;2023-08-12T14:42:41;2.75;;;1.50;;
21905;SDS011;11117;48.644;9.006;2023-08-12T14:45:07;2.03;;;1.80;;
21905;SDS011;11117;48.644;9.006;2023-08-12T14:47:33;4.03;;;1.50;;
21905;SDS011;11117;48.644;9.006;2023-08-12T14:49:58;3.17;;;1.55;;
21905;SDS011;11117;48.644;9.006;2023-08-12T14:52:24;3.95;;;1.70;;
21905;SDS011;11117;48.644;9.006;2023-08-12T14:54:49;4.22;;;1.50;;